Pagina principale
METAR-TAF:

METAR-TAF

Aeroporti :

Aeroporto di Basilea-Mulhouse-Friburgo

Basilea-Mulhouse, Francia

latitudine: 47-36N, longitudine: 007-31E, altezza: 270 m

Osservazione

Il bollettino è stato emesso 36 minuti fa, alle 17:00 UTC
Vento 7 kt da est/sud-est, variando fra est/nord-est e sud-est
Temperature 22°C
Umidità 33%
Pressione 1016 hPa
Visibilità 10 km o più
nessuna nube inferiore a 1500 m e nessun cumulonembo

METAR: LFSB 311700Z AUTO 11007KT 060V140 CAVOK 22/05 Q1016 NOSIG

Ora: 19:36 (17:36 UTC)

Previsione

Il bollettino è stato emesso 6 ore e 36 minuti fa, alle 11:00 UTC
Previsione valida dal 31 alle 12 UTC al 01 alle 12 UTC
Vento 6 kt da nord
Visibilità 10 km o più
Poco nuvoloso ad un'altezza di 5000 ft
Temporaneamente
dal 31 alle 18 UTC al 31 alle 23 UTC
Vento 10 kt da est

TAF: LFSB 311100Z 3112/0112 36006KT 9999 FEW050 TEMPO 3118/3123 09010KT

Osservazioni e previsioni meteorologiche di più di 4000 aeroporti (messaggi METAR e TAF).

Le stazioni disponibili sono rappresentate dai dischi gialli e rossi sulla carta.

Puntare il mouse per vedere il nome della stazione.

Clicca sopra per visualizzare le osservazioni e previsioni meteorologiche.

Per cambiare la mappa : fare clic sui pulsanti verdi con una croce nera per ingrandire, il pulsante verde con un trattino per diminuire, o sulla freccia verde per le mappe adiacenti.


METAR-TAF: